sensor_id;sensor_type;location;lat;lon;timestamp;P1;durP1;ratioP1;P2;durP2;ratioP2
61003;SDS011;46889;37.310;13.582;2024-03-08T00:00:36;9.20;;;2.50;;
61003;SDS011;46889;37.310;13.582;2024-03-08T00:03:03;14.35;;;2.97;;
61003;SDS011;46889;37.310;13.582;2024-03-08T00:05:29;10.45;;;3.03;;
61003;SDS011;46889;37.310;13.582;2024-03-08T00:07:56;9.20;;;3.22;;
61003;SDS011;46889;37.310;13.582;2024-03-08T00:10:22;6.67;;;2.73;;
61003;SDS011;46889;37.310;13.582;2024-03-08T00:12:49;9.23;;;3.35;;
61003;SDS011;46889;37.310;13.582;2024-03-08T00:15:17;14.23;;;3.72;;
61003;SDS011;46889;37.310;13.582;2024-03-08T00:17:43;12.88;;;2.83;;
61003;SDS011;46889;37.310;13.582;2024-03-08T00:20:10;10.75;;;3.20;;
61003;SDS011;46889;37.310;13.582;2024-03-08T00:22:36;16.92;;;3.10;;
61003;SDS011;46889;37.310;13.582;2024-03-08T00:27:29;8.95;;;2.70;;
61003;SDS011;46889;37.310;13.582;2024-03-08T00:29:59;17.20;;;3.72;;
61003;SDS011;46889;37.310;13.582;2024-03-08T00:32:26;13.73;;;3.53;;
61003;SDS011;46889;37.310;13.582;2024-03-08T00:34:57;9.48;;;2.60;;
61003;SDS011;46889;37.310;13.582;2024-03-08T00:37:23;6.78;;;2.78;;
61003;SDS011;46889;37.310;13.582;2024-03-08T00:39:52;10.05;;;2.90;;
61003;SDS011;46889;37.310;13.582;2024-03-08T00:42:19;9.90;;;3.28;;
61003;SDS011;46889;37.310;13.582;2024-03-08T00:44:46;16.63;;;3.42;;
61003;SDS011;46889;37.310;13.582;2024-03-08T00:47:13;11.50;;;3.10;;
61003;SDS011;46889;37.310;13.582;2024-03-08T00:49:41;7.55;;;3.22;;
61003;SDS011;46889;37.310;13.582;2024-03-08T00:52:07;9.40;;;2.97;;
61003;SDS011;46889;37.310;13.582;2024-03-08T00:54:34;13.60;;;3.70;;
61003;SDS011;46889;37.310;13.582;2024-03-08T00:57:03;12.80;;;3.33;;
61003;SDS011;46889;37.310;13.582;2024-03-08T00:59:31;9.82;;;3.53;;
61003;SDS011;46889;37.310;13.582;2024-03-08T01:01:58;11.05;;;3.78;;
61003;SDS011;46889;37.310;13.582;2024-03-08T01:04:30;14.38;;;4.18;;
61003;SDS011;46889;37.310;13.582;2024-03-08T01:07:00;12.43;;;3.53;;
61003;SDS011;46889;37.310;13.582;2024-03-08T01:09:26;7.57;;;3.13;;
61003;SDS011;46889;37.310;13.582;2024-03-08T01:11:53;13.70;;;3.38;;
61003;SDS011;46889;37.310;13.582;2024-03-08T01:16:50;10.88;;;3.38;;
61003;SDS011;46889;37.310;13.582;2024-03-08T01:19:17;14.13;;;3.90;;
61003;SDS011;46889;37.310;13.582;2024-03-08T01:21:48;11.32;;;4.10;;
61003;SDS011;46889;37.310;13.582;2024-03-08T01:24:14;15.13;;;3.73;;
61003;SDS011;46889;37.310;13.582;2024-03-08T01:26:42;9.75;;;3.97;;
61003;SDS011;46889;37.310;13.582;2024-03-08T01:29:08;12.97;;;4.10;;
61003;SDS011;46889;37.310;13.582;2024-03-08T01:31:34;14.10;;;3.50;;
61003;SDS011;46889;37.310;13.582;2024-03-08T01:36:27;12.23;;;4.18;;
61003;SDS011;46889;37.310;13.582;2024-03-08T01:38:53;10.10;;;3.33;;
61003;SDS011;46889;37.310;13.582;2024-03-08T01:41:19;17.57;;;4.93;;
61003;SDS011;46889;37.310;13.582;2024-03-08T01:43:46;15.40;;;3.88;;
61003;SDS011;46889;37.310;13.582;2024-03-08T01:46:14;9.80;;;3.58;;
61003;SDS011;46889;37.310;13.582;2024-03-08T01:48:43;12.23;;;3.70;;
61003;SDS011;46889;37.310;13.582;2024-03-08T01:51:09;9.68;;;3.83;;
61003;SDS011;46889;37.310;13.582;2024-03-08T01:53:37;10.90;;;3.60;;
61003;SDS011;46889;37.310;13.582;2024-03-08T01:56:05;6.50;;;3.50;;
61003;SDS011;46889;37.310;13.582;2024-03-08T01:58:34;8.88;;;4.20;;
61003;SDS011;46889;37.310;13.582;2024-03-08T02:01:00;11.57;;;4.97;;
61003;SDS011;46889;37.310;13.582;2024-03-08T02:03:29;13.35;;;3.53;;
61003;SDS011;46889;37.310;13.582;2024-03-08T02:05:56;11.40;;;3.70;;
61003;SDS011;46889;37.310;13.582;2024-03-08T02:08:24;13.32;;;3.97;;
61003;SDS011;46889;37.310;13.582;2024-03-08T02:10:50;16.65;;;4.38;;
61003;SDS011;46889;37.310;13.582;2024-03-08T02:13:16;10.83;;;4.20;;
61003;SDS011;46889;37.310;13.582;2024-03-08T02:15:56;10.97;;;4.60;;
61003;SDS011;46889;37.310;13.582;2024-03-08T02:18:24;14.25;;;4.93;;
61003;SDS011;46889;37.310;13.582;2024-03-08T02:20:52;12.95;;;4.43;;
61003;SDS011;46889;37.310;13.582;2024-03-08T02:23:19;11.18;;;4.18;;
61003;SDS011;46889;37.310;13.582;2024-03-08T02:25:46;10.80;;;3.95;;
61003;SDS011;46889;37.310;13.582;2024-03-08T02:28:13;13.75;;;4.95;;
61003;SDS011;46889;37.310;13.582;2024-03-08T02:30:39;10.68;;;4.82;;
61003;SDS011;46889;37.310;13.582;2024-03-08T02:33:06;17.35;;;3.95;;
61003;SDS011;46889;37.310;13.582;2024-03-08T02:35:36;13.85;;;4.20;;
61003;SDS011;46889;37.310;13.582;2024-03-08T02:38:03;14.70;;;4.40;;
61003;SDS011;46889;37.310;13.582;2024-03-08T02:40:29;15.05;;;4.45;;
61003;SDS011;46889;37.310;13.582;2024-03-08T02:42:55;8.25;;;3.60;;
61003;SDS011;46889;37.310;13.582;2024-03-08T02:45:21;10.43;;;4.20;;
61003;SDS011;46889;37.310;13.582;2024-03-08T02:47:48;13.98;;;4.03;;
61003;SDS011;46889;37.310;13.582;2024-03-08T02:50:16;17.35;;;4.40;;
61003;SDS011;46889;37.310;13.582;2024-03-08T02:52:43;7.78;;;4.15;;
61003;SDS011;46889;37.310;13.582;2024-03-08T02:55:11;14.20;;;4.97;;
61003;SDS011;46889;37.310;13.582;2024-03-08T02:57:40;10.82;;;4.30;;
61003;SDS011;46889;37.310;13.582;2024-03-08T03:00:07;12.80;;;4.22;;
61003;SDS011;46889;37.310;13.582;2024-03-08T03:02:36;14.70;;;5.00;;
61003;SDS011;46889;37.310;13.582;2024-03-08T03:05:02;15.10;;;5.15;;
61003;SDS011;46889;37.310;13.582;2024-03-08T03:07:32;13.70;;;4.32;;
61003;SDS011;46889;37.310;13.582;2024-03-08T03:09:59;12.38;;;4.43;;
61003;SDS011;46889;37.310;13.582;2024-03-08T03:12:28;12.50;;;4.70;;
61003;SDS011;46889;37.310;13.582;2024-03-08T03:14:56;21.20;;;4.43;;
61003;SDS011;46889;37.310;13.582;2024-03-08T03:17:26;12.93;;;5.20;;
61003;SDS011;46889;37.310;13.582;2024-03-08T03:19:52;11.25;;;4.20;;
61003;SDS011;46889;37.310;13.582;2024-03-08T03:22:20;21.73;;;5.10;;
61003;SDS011;46889;37.310;13.582;2024-03-08T03:24:47;14.13;;;4.65;;
61003;SDS011;46889;37.310;13.582;2024-03-08T03:29:40;19.25;;;4.22;;
61003;SDS011;46889;37.310;13.582;2024-03-08T03:32:12;14.15;;;3.92;;
61003;SDS011;46889;37.310;13.582;2024-03-08T03:34:39;15.40;;;4.45;;
61003;SDS011;46889;37.310;13.582;2024-03-08T03:37:06;12.30;;;4.47;;
61003;SDS011;46889;37.310;13.582;2024-03-08T03:39:43;14.27;;;4.55;;
61003;SDS011;46889;37.310;13.582;2024-03-08T03:42:18;22.33;;;5.38;;
61003;SDS011;46889;37.310;13.582;2024-03-08T03:47:11;13.68;;;4.18;;
61003;SDS011;46889;37.310;13.582;2024-03-08T03:52:04;14.80;;;4.40;;
61003;SDS011;46889;37.310;13.582;2024-03-08T03:54:31;15.55;;;4.07;;
61003;SDS011;46889;37.310;13.582;2024-03-08T03:56:58;11.85;;;4.45;;
61003;SDS011;46889;37.310;13.582;2024-03-08T03:59:25;15.88;;;4.25;;
61003;SDS011;46889;37.310;13.582;2024-03-08T04:01:54;13.80;;;5.88;;
61003;SDS011;46889;37.310;13.582;2024-03-08T04:04:23;15.00;;;5.20;;
61003;SDS011;46889;37.310;13.582;2024-03-08T04:06:49;13.98;;;4.55;;
61003;SDS011;46889;37.310;13.582;2024-03-08T04:09:17;7.75;;;3.35;;
61003;SDS011;46889;37.310;13.582;2024-03-08T04:11:47;15.15;;;4.47;;
61003;SDS011;46889;37.310;13.582;2024-03-08T04:14:15;14.52;;;5.00;;
61003;SDS011;46889;37.310;13.582;2024-03-08T04:19:08;13.40;;;4.70;;
61003;SDS011;46889;37.310;13.582;2024-03-08T04:21:35;12.18;;;4.35;;
61003;SDS011;46889;37.310;13.582;2024-03-08T04:24:01;10.03;;;4.30;;
61003;SDS011;46889;37.310;13.582;2024-03-08T04:26:28;15.00;;;4.53;;
61003;SDS011;46889;37.310;13.582;2024-03-08T04:29:08;13.38;;;4.65;;
61003;SDS011;46889;37.310;13.582;2024-03-08T04:31:37;14.80;;;5.13;;
61003;SDS011;46889;37.310;13.582;2024-03-08T04:34:13;13.37;;;4.30;;
61003;SDS011;46889;37.310;13.582;2024-03-08T04:36:40;14.88;;;5.40;;
61003;SDS011;46889;37.310;13.582;2024-03-08T04:39:08;12.32;;;4.55;;
61003;SDS011;46889;37.310;13.582;2024-03-08T04:41:39;11.30;;;4.43;;
61003;SDS011;46889;37.310;13.582;2024-03-08T04:44:06;14.02;;;4.13;;
61003;SDS011;46889;37.310;13.582;2024-03-08T04:49:00;15.35;;;4.82;;
61003;SDS011;46889;37.310;13.582;2024-03-08T04:53:53;14.18;;;4.43;;
61003;SDS011;46889;37.310;13.582;2024-03-08T04:56:19;13.15;;;4.22;;
61003;SDS011;46889;37.310;13.582;2024-03-08T04:58:46;11.90;;;4.50;;
61003;SDS011;46889;37.310;13.582;2024-03-08T05:01:12;13.60;;;5.18;;
61003;SDS011;46889;37.310;13.582;2024-03-08T05:03:39;10.85;;;4.53;;
61003;SDS011;46889;37.310;13.582;2024-03-08T05:06:05;16.27;;;5.40;;
61003;SDS011;46889;37.310;13.582;2024-03-08T05:08:31;19.80;;;5.77;;
61003;SDS011;46889;37.310;13.582;2024-03-08T05:13:24;11.35;;;4.72;;
61003;SDS011;46889;37.310;13.582;2024-03-08T05:15:52;12.02;;;5.03;;
61003;SDS011;46889;37.310;13.582;2024-03-08T05:18:18;15.90;;;4.90;;
61003;SDS011;46889;37.310;13.582;2024-03-08T05:20:44;13.80;;;4.43;;
61003;SDS011;46889;37.310;13.582;2024-03-08T05:23:11;13.00;;;5.28;;
61003;SDS011;46889;37.310;13.582;2024-03-08T05:25:37;16.65;;;5.57;;
61003;SDS011;46889;37.310;13.582;2024-03-08T05:28:03;19.97;;;4.67;;
61003;SDS011;46889;37.310;13.582;2024-03-08T05:30:30;11.75;;;4.57;;
61003;SDS011;46889;37.310;13.582;2024-03-08T05:32:57;12.82;;;4.88;;
61003;SDS011;46889;37.310;13.582;2024-03-08T05:35:23;12.45;;;4.50;;
61003;SDS011;46889;37.310;13.582;2024-03-08T05:37:49;13.95;;;5.13;;
61003;SDS011;46889;37.310;13.582;2024-03-08T05:40:15;12.43;;;5.17;;
61003;SDS011;46889;37.310;13.582;2024-03-08T05:42:41;16.40;;;5.03;;
61003;SDS011;46889;37.310;13.582;2024-03-08T05:45:08;16.47;;;6.90;;
61003;SDS011;46889;37.310;13.582;2024-03-08T05:47:36;13.40;;;5.07;;
61003;SDS011;46889;37.310;13.582;2024-03-08T05:50:04;15.18;;;5.32;;
61003;SDS011;46889;37.310;13.582;2024-03-08T05:52:32;17.92;;;5.70;;
61003;SDS011;46889;37.310;13.582;2024-03-08T05:54:58;19.13;;;6.13;;
61003;SDS011;46889;37.310;13.582;2024-03-08T05:57:24;16.73;;;6.13;;
61003;SDS011;46889;37.310;13.582;2024-03-08T05:59:52;11.35;;;3.22;;
61003;SDS011;46889;37.310;13.582;2024-03-08T06:02:18;15.98;;;4.63;;
61003;SDS011;46889;37.310;13.582;2024-03-08T06:04:45;10.85;;;4.80;;
61003;SDS011;46889;37.310;13.582;2024-03-08T06:07:12;15.95;;;4.72;;
61003;SDS011;46889;37.310;13.582;2024-03-08T06:09:38;11.33;;;4.10;;
61003;SDS011;46889;37.310;13.582;2024-03-08T06:12:05;15.18;;;3.70;;
61003;SDS011;46889;37.310;13.582;2024-03-08T06:14:31;11.15;;;3.55;;
61003;SDS011;46889;37.310;13.582;2024-03-08T06:16:57;10.73;;;3.35;;
61003;SDS011;46889;37.310;13.582;2024-03-08T06:19:33;14.50;;;3.63;;
61003;SDS011;46889;37.310;13.582;2024-03-08T06:22:01;13.77;;;3.65;;
61003;SDS011;46889;37.310;13.582;2024-03-08T06:24:33;14.57;;;3.28;;
61003;SDS011;46889;37.310;13.582;2024-03-08T06:27:01;13.52;;;3.53;;
61003;SDS011;46889;37.310;13.582;2024-03-08T06:29:27;11.93;;;3.30;;
61003;SDS011;46889;37.310;13.582;2024-03-08T06:31:53;9.13;;;2.97;;
61003;SDS011;46889;37.310;13.582;2024-03-08T06:36:46;13.73;;;2.83;;
61003;SDS011;46889;37.310;13.582;2024-03-08T06:39:12;12.23;;;2.95;;
61003;SDS011;46889;37.310;13.582;2024-03-08T06:41:38;11.18;;;2.75;;
61003;SDS011;46889;37.310;13.582;2024-03-08T06:44:05;11.25;;;2.90;;
61003;SDS011;46889;37.310;13.582;2024-03-08T06:46:35;8.05;;;2.47;;
61003;SDS011;46889;37.310;13.582;2024-03-08T06:49:03;14.23;;;2.35;;
61003;SDS011;46889;37.310;13.582;2024-03-08T06:51:29;13.77;;;2.88;;
61003;SDS011;46889;37.310;13.582;2024-03-08T06:53:55;10.05;;;2.92;;
61003;SDS011;46889;37.310;13.582;2024-03-08T06:56:22;14.65;;;3.55;;
61003;SDS011;46889;37.310;13.582;2024-03-08T06:58:48;7.40;;;2.88;;
61003;SDS011;46889;37.310;13.582;2024-03-08T07:01:14;11.23;;;2.95;;
61003;SDS011;46889;37.310;13.582;2024-03-08T07:03:43;7.25;;;2.63;;
61003;SDS011;46889;37.310;13.582;2024-03-08T07:06:10;11.98;;;2.97;;
61003;SDS011;46889;37.310;13.582;2024-03-08T07:08:36;11.20;;;3.25;;
61003;SDS011;46889;37.310;13.582;2024-03-08T07:11:02;11.50;;;3.15;;
61003;SDS011;46889;37.310;13.582;2024-03-08T07:13:28;11.38;;;3.00;;
61003;SDS011;46889;37.310;13.582;2024-03-08T07:15:55;10.48;;;3.03;;
61003;SDS011;46889;37.310;13.582;2024-03-08T07:18:21;8.77;;;3.05;;
61003;SDS011;46889;37.310;13.582;2024-03-08T07:20:47;14.10;;;3.33;;
61003;SDS011;46889;37.310;13.582;2024-03-08T07:26:00;12.23;;;2.75;;
61003;SDS011;46889;37.310;13.582;2024-03-08T07:28:26;12.90;;;3.08;;
61003;SDS011;46889;37.310;13.582;2024-03-08T07:30:52;9.70;;;2.10;;
61003;SDS011;46889;37.310;13.582;2024-03-08T07:33:27;13.00;;;2.63;;
61003;SDS011;46889;37.310;13.582;2024-03-08T07:38:21;8.18;;;2.10;;
61003;SDS011;46889;37.310;13.582;2024-03-08T07:40:47;14.57;;;2.83;;
61003;SDS011;46889;37.310;13.582;2024-03-08T07:43:13;13.65;;;2.85;;
61003;SDS011;46889;37.310;13.582;2024-03-08T07:45:39;13.25;;;2.70;;
61003;SDS011;46889;37.310;13.582;2024-03-08T07:48:05;46.58;;;5.15;;
61003;SDS011;46889;37.310;13.582;2024-03-08T07:50:38;10.60;;;2.40;;
61003;SDS011;46889;37.310;13.582;2024-03-08T07:53:07;11.35;;;3.03;;
61003;SDS011;46889;37.310;13.582;2024-03-08T07:55:33;16.08;;;2.58;;
61003;SDS011;46889;37.310;13.582;2024-03-08T07:58:00;15.35;;;3.80;;
61003;SDS011;46889;37.310;13.582;2024-03-08T08:00:28;10.02;;;3.42;;
61003;SDS011;46889;37.310;13.582;2024-03-08T08:02:56;10.57;;;2.90;;
61003;SDS011;46889;37.310;13.582;2024-03-08T08:05:22;15.55;;;3.33;;
61003;SDS011;46889;37.310;13.582;2024-03-08T08:07:48;13.55;;;3.47;;
61003;SDS011;46889;37.310;13.582;2024-03-08T08:10:15;26.73;;;7.40;;
61003;SDS011;46889;37.310;13.582;2024-03-08T08:12:49;21.58;;;5.80;;
61003;SDS011;46889;37.310;13.582;2024-03-08T08:15:15;20.80;;;4.68;;
61003;SDS011;46889;37.310;13.582;2024-03-08T08:17:42;12.93;;;3.67;;
61003;SDS011;46889;37.310;13.582;2024-03-08T08:20:09;11.18;;;2.80;;
61003;SDS011;46889;37.310;13.582;2024-03-08T08:22:37;19.48;;;2.92;;
61003;SDS011;46889;37.310;13.582;2024-03-08T08:25:06;12.63;;;2.22;;
61003;SDS011;46889;37.310;13.582;2024-03-08T08:27:33;11.65;;;2.28;;
61003;SDS011;46889;37.310;13.582;2024-03-08T08:29:59;7.90;;;1.80;;
61003;SDS011;46889;37.310;13.582;2024-03-08T08:32:25;10.65;;;2.22;;
61003;SDS011;46889;37.310;13.582;2024-03-08T08:34:52;11.00;;;1.77;;
61003;SDS011;46889;37.310;13.582;2024-03-08T08:37:18;9.32;;;1.92;;
61003;SDS011;46889;37.310;13.582;2024-03-08T08:39:45;21.23;;;2.78;;
61003;SDS011;46889;37.310;13.582;2024-03-08T08:42:11;11.52;;;2.15;;
61003;SDS011;46889;37.310;13.582;2024-03-08T08:47:03;12.00;;;2.38;;
61003;SDS011;46889;37.310;13.582;2024-03-08T08:49:30;16.30;;;1.70;;
61003;SDS011;46889;37.310;13.582;2024-03-08T08:51:56;11.68;;;2.05;;
61003;SDS011;46889;37.310;13.582;2024-03-08T08:54:23;14.02;;;2.33;;
61003;SDS011;46889;37.310;13.582;2024-03-08T08:56:50;38.47;;;4.03;;
61003;SDS011;46889;37.310;13.582;2024-03-08T08:59:16;10.80;;;2.38;;
61003;SDS011;46889;37.310;13.582;2024-03-08T09:01:45;12.23;;;1.85;;
61003;SDS011;46889;37.310;13.582;2024-03-08T09:04:15;8.90;;;1.73;;
61003;SDS011;46889;37.310;13.582;2024-03-08T09:06:41;7.65;;;2.08;;
61003;SDS011;46889;37.310;13.582;2024-03-08T09:09:07;10.70;;;2.03;;
61003;SDS011;46889;37.310;13.582;2024-03-08T09:11:34;14.40;;;4.78;;
61003;SDS011;46889;37.310;13.582;2024-03-08T09:14:00;8.80;;;1.73;;
61003;SDS011;46889;37.310;13.582;2024-03-08T09:16:30;10.57;;;1.92;;
61003;SDS011;46889;37.310;13.582;2024-03-08T09:18:58;9.25;;;1.80;;
61003;SDS011;46889;37.310;13.582;2024-03-08T09:21:24;9.23;;;2.03;;
61003;SDS011;46889;37.310;13.582;2024-03-08T09:23:52;8.40;;;1.63;;
61003;SDS011;46889;37.310;13.582;2024-03-08T09:26:19;21.38;;;2.10;;
61003;SDS011;46889;37.310;13.582;2024-03-08T09:28:45;11.32;;;1.52;;
61003;SDS011;46889;37.310;13.582;2024-03-08T09:31:11;10.02;;;1.77;;
61003;SDS011;46889;37.310;13.582;2024-03-08T09:33:37;10.27;;;2.10;;
61003;SDS011;46889;37.310;13.582;2024-03-08T09:36:05;11.65;;;1.40;;
61003;SDS011;46889;37.310;13.582;2024-03-08T09:38:32;9.45;;;1.90;;
61003;SDS011;46889;37.310;13.582;2024-03-08T09:41:01;13.07;;;1.77;;
61003;SDS011;46889;37.310;13.582;2024-03-08T09:43:29;9.18;;;1.90;;
61003;SDS011;46889;37.310;13.582;2024-03-08T09:45:58;8.68;;;1.77;;
61003;SDS011;46889;37.310;13.582;2024-03-08T09:48:25;10.75;;;2.15;;
61003;SDS011;46889;37.310;13.582;2024-03-08T09:50:52;8.13;;;1.85;;
61003;SDS011;46889;37.310;13.582;2024-03-08T09:53:19;11.20;;;1.63;;
61003;SDS011;46889;37.310;13.582;2024-03-08T09:55:47;12.60;;;1.75;;
61003;SDS011;46889;37.310;13.582;2024-03-08T09:58:15;11.18;;;1.90;;
61003;SDS011;46889;37.310;13.582;2024-03-08T10:00:52;10.25;;;1.77;;
61003;SDS011;46889;37.310;13.582;2024-03-08T10:03:22;14.32;;;2.10;;
61003;SDS011;46889;37.310;13.582;2024-03-08T10:05:49;8.50;;;1.77;;
61003;SDS011;46889;37.310;13.582;2024-03-08T10:08:20;13.63;;;1.88;;
61003;SDS011;46889;37.310;13.582;2024-03-08T10:10:46;59.83;;;7.20;;
61003;SDS011;46889;37.310;13.582;2024-03-08T10:13:12;14.48;;;1.98;;
61003;SDS011;46889;37.310;13.582;2024-03-08T10:15:39;13.07;;;1.88;;
61003;SDS011;46889;37.310;13.582;2024-03-08T10:18:05;7.45;;;1.63;;
61003;SDS011;46889;37.310;13.582;2024-03-08T10:20:33;16.08;;;2.10;;
61003;SDS011;46889;37.310;13.582;2024-03-08T10:23:00;14.48;;;1.60;;
61003;SDS011;46889;37.310;13.582;2024-03-08T10:25:28;15.68;;;1.65;;
61003;SDS011;46889;37.310;13.582;2024-03-08T10:27:55;15.80;;;2.50;;
61003;SDS011;46889;37.310;13.582;2024-03-08T10:30:22;19.33;;;2.22;;
61003;SDS011;46889;37.310;13.582;2024-03-08T10:32:48;11.68;;;1.92;;
61003;SDS011;46889;37.310;13.582;2024-03-08T10:35:16;12.55;;;1.70;;
61003;SDS011;46889;37.310;13.582;2024-03-08T10:37:47;11.55;;;1.80;;
61003;SDS011;46889;37.310;13.582;2024-03-08T10:40:28;8.35;;;2.08;;
61003;SDS011;46889;37.310;13.582;2024-03-08T10:42:56;12.88;;;1.90;;
61003;SDS011;46889;37.310;13.582;2024-03-08T10:50:32;12.68;;;2.30;;
61003;SDS011;46889;37.310;13.582;2024-03-08T10:53:01;15.07;;;2.20;;
61003;SDS011;46889;37.310;13.582;2024-03-08T10:55:28;16.80;;;2.03;;
61003;SDS011;46889;37.310;13.582;2024-03-08T10:57:55;15.73;;;1.92;;
61003;SDS011;46889;37.310;13.582;2024-03-08T11:00:21;12.88;;;2.05;;
61003;SDS011;46889;37.310;13.582;2024-03-08T11:02:54;11.32;;;2.08;;
61003;SDS011;46889;37.310;13.582;2024-03-08T11:08:25;12.77;;;1.88;;
61003;SDS011;46889;37.310;13.582;2024-03-08T11:10:52;11.95;;;2.45;;
61003;SDS011;46889;37.310;13.582;2024-03-08T11:13:36;17.65;;;2.35;;
61003;SDS011;46889;37.310;13.582;2024-03-08T11:16:50;11.65;;;1.77;;
61003;SDS011;46889;37.310;13.582;2024-03-08T11:21:25;13.98;;;2.08;;
61003;SDS011;46889;37.310;13.582;2024-03-08T11:24:01;14.05;;;1.88;;
61003;SDS011;46889;37.310;13.582;2024-03-08T11:26:31;13.75;;;1.88;;
61003;SDS011;46889;37.310;13.582;2024-03-08T11:31:51;12.18;;;2.33;;
61003;SDS011;46889;37.310;13.582;2024-03-08T11:34:17;9.82;;;1.50;;
61003;SDS011;46889;37.310;13.582;2024-03-08T11:36:47;5.97;;;1.60;;
61003;SDS011;46889;37.310;13.582;2024-03-08T11:39:15;13.27;;;2.30;;
61003;SDS011;46889;37.310;13.582;2024-03-08T11:41:42;12.35;;;1.92;;
61003;SDS011;46889;37.310;13.582;2024-03-08T11:44:11;14.80;;;2.00;;
61003;SDS011;46889;37.310;13.582;2024-03-08T11:46:41;11.02;;;1.75;;
61003;SDS011;46889;37.310;13.582;2024-03-08T11:49:12;15.73;;;2.45;;
61003;SDS011;46889;37.310;13.582;2024-03-08T11:51:38;14.57;;;2.60;;
61003;SDS011;46889;37.310;13.582;2024-03-08T11:54:06;15.85;;;2.75;;
61003;SDS011;46889;37.310;13.582;2024-03-08T11:56:37;9.48;;;1.88;;
61003;SDS011;46889;37.310;13.582;2024-03-08T11:59:03;10.30;;;1.40;;
61003;SDS011;46889;37.310;13.582;2024-03-08T12:01:30;10.70;;;2.00;;
61003;SDS011;46889;37.310;13.582;2024-03-08T12:03:56;13.23;;;2.25;;
61003;SDS011;46889;37.310;13.582;2024-03-08T12:06:27;8.75;;;2.03;;
61003;SDS011;46889;37.310;13.582;2024-03-08T12:11:28;13.30;;;2.38;;
61003;SDS011;46889;37.310;13.582;2024-03-08T12:13:56;41.47;;;4.85;;
61003;SDS011;46889;37.310;13.582;2024-03-08T12:16:23;15.30;;;1.83;;
61003;SDS011;46889;37.310;13.582;2024-03-08T12:18:50;11.77;;;1.98;;
61003;SDS011;46889;37.310;13.582;2024-03-08T12:21:18;10.05;;;2.50;;
61003;SDS011;46889;37.310;13.582;2024-03-08T12:24:06;9.52;;;1.88;;
61003;SDS011;46889;37.310;13.582;2024-03-08T12:26:39;14.40;;;1.70;;
61003;SDS011;46889;37.310;13.582;2024-03-08T12:29:19;20.40;;;2.10;;
61003;SDS011;46889;37.310;13.582;2024-03-08T12:31:54;16.00;;;2.40;;
61003;SDS011;46889;37.310;13.582;2024-03-08T12:34:23;16.27;;;2.42;;
61003;SDS011;46889;37.310;13.582;2024-03-08T12:36:51;29.95;;;4.05;;
61003;SDS011;46889;37.310;13.582;2024-03-08T12:39:19;9.00;;;1.70;;
61003;SDS011;46889;37.310;13.582;2024-03-08T12:41:52;16.80;;;2.50;;
61003;SDS011;46889;37.310;13.582;2024-03-08T12:44:19;12.13;;;2.58;;
61003;SDS011;46889;37.310;13.582;2024-03-08T12:46:50;33.40;;;3.63;;
61003;SDS011;46889;37.310;13.582;2024-03-08T12:49:18;16.73;;;2.55;;
61003;SDS011;46889;37.310;13.582;2024-03-08T12:51:47;13.40;;;2.10;;
61003;SDS011;46889;37.310;13.582;2024-03-08T12:56:40;11.88;;;2.25;;
61003;SDS011;46889;37.310;13.582;2024-03-08T12:59:07;106.28;;;9.30;;
61003;SDS011;46889;37.310;13.582;2024-03-08T13:01:34;25.55;;;2.95;;
61003;SDS011;46889;37.310;13.582;2024-03-08T13:04:03;15.73;;;2.35;;
61003;SDS011;46889;37.310;13.582;2024-03-08T13:06:31;17.42;;;2.30;;
61003;SDS011;46889;37.310;13.582;2024-03-08T13:08:58;14.43;;;2.40;;
61003;SDS011;46889;37.310;13.582;2024-03-08T13:11:30;15.88;;;2.58;;
61003;SDS011;46889;37.310;13.582;2024-03-08T13:14:02;16.95;;;2.10;;
61003;SDS011;46889;37.310;13.582;2024-03-08T13:16:29;15.10;;;2.03;;
61003;SDS011;46889;37.310;13.582;2024-03-08T13:18:55;12.73;;;2.00;;
61003;SDS011;46889;37.310;13.582;2024-03-08T13:23:49;17.60;;;2.10;;
61003;SDS011;46889;37.310;13.582;2024-03-08T13:26:16;12.82;;;2.05;;
61003;SDS011;46889;37.310;13.582;2024-03-08T13:31:10;10.55;;;2.05;;
61003;SDS011;46889;37.310;13.582;2024-03-08T13:33:40;12.30;;;2.00;;
61003;SDS011;46889;37.310;13.582;2024-03-08T13:36:11;18.40;;;2.53;;
61003;SDS011;46889;37.310;13.582;2024-03-08T13:38:48;14.90;;;2.67;;
61003;SDS011;46889;37.310;13.582;2024-03-08T13:41:14;12.77;;;2.70;;
61003;SDS011;46889;37.310;13.582;2024-03-08T13:43:42;15.55;;;2.38;;
61003;SDS011;46889;37.310;13.582;2024-03-08T13:46:14;12.13;;;2.20;;
61003;SDS011;46889;37.310;13.582;2024-03-08T13:48:40;18.92;;;2.83;;
61003;SDS011;46889;37.310;13.582;2024-03-08T13:51:07;21.05;;;2.75;;
61003;SDS011;46889;37.310;13.582;2024-03-08T13:53:39;32.58;;;4.40;;
61003;SDS011;46889;37.310;13.582;2024-03-08T13:56:05;27.35;;;4.93;;
61003;SDS011;46889;37.310;13.582;2024-03-08T13:58:31;15.23;;;2.25;;
61003;SDS011;46889;37.310;13.582;2024-03-08T14:00:58;20.30;;;2.92;;
61003;SDS011;46889;37.310;13.582;2024-03-08T14:03:25;15.40;;;2.60;;
61003;SDS011;46889;37.310;13.582;2024-03-08T14:05:51;13.43;;;2.58;;
61003;SDS011;46889;37.310;13.582;2024-03-08T14:08:17;15.38;;;2.95;;
61003;SDS011;46889;37.310;13.582;2024-03-08T14:10:44;14.85;;;2.95;;
61003;SDS011;46889;37.310;13.582;2024-03-08T14:13:12;14.20;;;2.10;;
61003;SDS011;46889;37.310;13.582;2024-03-08T14:15:41;19.75;;;2.85;;
61003;SDS011;46889;37.310;13.582;2024-03-08T14:18:07;12.73;;;1.92;;
61003;SDS011;46889;37.310;13.582;2024-03-08T14:20:33;13.20;;;2.30;;
61003;SDS011;46889;37.310;13.582;2024-03-08T14:23:00;14.63;;;2.88;;
61003;SDS011;46889;37.310;13.582;2024-03-08T14:25:26;40.78;;;4.13;;
61003;SDS011;46889;37.310;13.582;2024-03-08T14:27:55;10.82;;;1.98;;
61003;SDS011;46889;37.310;13.582;2024-03-08T14:30:27;13.10;;;2.30;;
61003;SDS011;46889;37.310;13.582;2024-03-08T14:33:06;18.35;;;2.58;;
61003;SDS011;46889;37.310;13.582;2024-03-08T14:35:36;18.90;;;2.45;;
61003;SDS011;46889;37.310;13.582;2024-03-08T14:38:06;24.63;;;3.65;;
61003;SDS011;46889;37.310;13.582;2024-03-08T14:40:36;20.98;;;2.65;;
61003;SDS011;46889;37.310;13.582;2024-03-08T14:43:03;12.82;;;2.20;;
61003;SDS011;46889;37.310;13.582;2024-03-08T14:45:32;31.42;;;2.95;;
61003;SDS011;46889;37.310;13.582;2024-03-08T14:50:24;14.07;;;2.30;;
61003;SDS011;46889;37.310;13.582;2024-03-08T14:52:51;29.08;;;3.60;;
61003;SDS011;46889;37.310;13.582;2024-03-08T14:55:17;19.50;;;2.60;;
61003;SDS011;46889;37.310;13.582;2024-03-08T14:57:49;50.17;;;4.28;;
61003;SDS011;46889;37.310;13.582;2024-03-08T15:00:16;18.48;;;2.42;;
61003;SDS011;46889;37.310;13.582;2024-03-08T15:02:55;16.63;;;2.53;;
61003;SDS011;46889;37.310;13.582;2024-03-08T15:05:24;12.00;;;1.98;;
61003;SDS011;46889;37.310;13.582;2024-03-08T15:07:53;12.27;;;2.13;;
61003;SDS011;46889;37.310;13.582;2024-03-08T16:14:49;10.13;;;2.33;;
61003;SDS011;46889;37.310;13.582;2024-03-08T16:17:16;104.00;;;8.38;;
61003;SDS011;46889;37.310;13.582;2024-03-08T16:19:42;17.35;;;2.20;;
61003;SDS011;46889;37.310;13.582;2024-03-08T16:22:10;22.13;;;2.55;;
61003;SDS011;46889;37.310;13.582;2024-03-08T16:24:36;14.23;;;2.00;;
61003;SDS011;46889;37.310;13.582;2024-03-08T16:27:03;13.13;;;1.65;;
61003;SDS011;46889;37.310;13.582;2024-03-08T16:29:30;15.38;;;2.10;;
61003;SDS011;46889;37.310;13.582;2024-03-08T16:31:56;15.90;;;2.72;;